createdAt,value
2019-04-11T00:04:19.904Z,96662.20
2019-04-11T00:09:24.943Z,96668.25
2019-04-11T00:14:29.735Z,96665.73
2019-04-11T00:19:34.372Z,96669.56
2019-04-11T00:24:39.114Z,96667.53
2019-04-11T00:29:44.782Z,96665.68
2019-04-11T00:34:49.624Z,96661.97
2019-04-11T00:39:54.367Z,96660.20
2019-04-11T00:44:59.177Z,96660.05
2019-04-11T00:50:07.235Z,96665.17
2019-04-11T00:55:13.295Z,96666.17
2019-04-11T01:00:18.635Z,96664.73
2019-04-11T01:05:23.629Z,96669.09
2019-04-11T01:10:28.170Z,96664.42
2019-04-11T01:15:33.001Z,96660.59
2019-04-11T01:20:37.803Z,96661.92
2019-04-11T01:25:42.895Z,96668.20
2019-04-11T01:30:49.276Z,96666.08
2019-04-11T01:35:54.045Z,96660.17
2019-04-11T01:40:58.749Z,96663.56
2019-04-11T01:46:03.705Z,96656.09
2019-04-11T01:51:09.603Z,96659.36
2019-04-11T01:56:14.840Z,96656.14
2019-04-11T02:01:25.074Z,96652.36
2019-04-11T02:06:30.360Z,96659.02
2019-04-11T02:11:34.890Z,96662.70
2019-04-11T02:16:39.530Z,96661.39
2019-04-11T02:21:44.267Z,96656.43
2019-04-11T02:27:00.763Z,96650.55
2019-04-11T02:32:07.446Z,96654.13
2019-04-11T02:37:13.355Z,96656.74
2019-04-11T02:42:18.994Z,96652.03
2019-04-11T02:47:27.643Z,96653.78
2019-04-11T02:52:31.223Z,96656.50
2019-04-11T02:57:36.297Z,96656.63
2019-04-11T03:02:42.359Z,96661.95
2019-04-11T03:07:47.740Z,96659.43
2019-04-11T03:12:52.768Z,96654.91
2019-04-11T03:18:01.977Z,96650.94
2019-04-11T03:23:06.180Z,96648.47
2019-04-11T03:28:14.923Z,96643.86
2019-04-11T03:34:01.880Z,96640.05
2019-04-11T03:38:46.929Z,96650.21
2019-04-11T03:43:39.505Z,96661.17
2019-04-11T03:48:46.767Z,96658.50
2019-04-11T03:53:43.199Z,96673.24
2019-04-11T03:58:48.658Z,96669.52
2019-04-11T04:03:58.194Z,96682.33
2019-04-11T04:09:02.754Z,96682.53
2019-04-11T04:14:28.618Z,96677.33
2019-04-11T04:19:35.425Z,96682.91
2019-04-11T04:24:42.637Z,96684.76
2019-04-11T04:29:52.841Z,96687.09
2019-04-11T04:34:56.031Z,96689.55
2019-04-11T04:40:19.004Z,96693.69
2019-04-11T04:45:09.044Z,96686.46
2019-04-11T04:50:13.724Z,96686.33
2019-04-11T04:55:19.445Z,96689.05
2019-04-11T05:00:25.357Z,96694.30
2019-04-11T05:05:31.756Z,96692.56
2019-04-11T05:10:37.991Z,96688.67
2019-04-11T05:15:43.676Z,96688.97
2019-04-11T05:20:49.312Z,96683.86
2019-04-11T05:25:54.952Z,96689.95
2019-04-11T05:31:00.460Z,96679.41
2019-04-11T05:36:05.995Z,96679.85
2019-04-11T05:41:12.347Z,96668.58
2019-04-11T05:46:31.175Z,96663.50
2019-04-11T05:51:24.906Z,96667.67
2019-04-11T05:56:31.560Z,96660.70
2019-04-11T06:01:38.334Z,96655.89
2019-04-11T06:06:44.733Z,96659.23
2019-04-11T06:11:55.837Z,96654.42
2019-04-11T06:17:01.854Z,96647.09
2019-04-11T06:22:08.683Z,96642.03
2019-04-11T06:27:18.258Z,96645.11
2019-04-11T06:32:31.895Z,96641.00
2019-04-11T06:37:47.853Z,96640.76
2019-04-11T06:42:54.104Z,96645.80
2019-04-11T06:48:00.992Z,96659.42
2019-04-11T06:54:00.860Z,96667.28
2019-04-11T06:59:26.081Z,96670.64
2019-04-11T07:04:33.571Z,96674.06
2019-04-11T07:09:43.005Z,96674.12
2019-04-11T07:15:07.327Z,96690.88
2019-04-11T07:20:20.691Z,96681.67
2019-04-11T07:25:27.338Z,96694.22
2019-04-11T07:30:49.901Z,96694.95
2019-04-11T07:35:59.838Z,96695.97
2019-04-11T07:41:09.343Z,96697.77
2019-04-11T07:46:22.149Z,96699.24
2019-04-11T07:51:27.563Z,96704.95
2019-04-11T07:56:35.172Z,96706.61
2019-04-11T08:01:42.474Z,96708.42
2019-04-11T08:07:04.427Z,96710.91
2019-04-11T08:12:10.803Z,96713.06
2019-04-11T08:17:33.289Z,96708.42
2019-04-11T08:22:35.052Z,96705.66
2019-04-11T08:27:53.095Z,96706.73
2019-04-11T08:32:53.812Z,96709.17
2019-04-11T08:38:02.803Z,96706.45
2019-04-11T08:43:09.413Z,96715.28
2019-04-11T08:48:16.978Z,96714.68
2019-04-11T08:53:21.759Z,96712.56
2019-04-11T08:58:28.849Z,96716.09
2019-04-11T09:04:01.249Z,96721.77
2019-04-11T09:09:02.807Z,96724.63
2019-04-11T09:14:26.622Z,96730.00
2019-04-11T09:19:32.904Z,96721.53
2019-04-11T09:24:43.143Z,96738.70
2019-04-11T09:30:12.765Z,96737.42
2019-04-11T09:35:33.393Z,96734.30
2019-04-11T09:40:57.160Z,96741.06
2019-04-11T09:46:22.057Z,96736.77
2019-04-11T09:51:29.457Z,96745.63
2019-04-11T09:56:55.998Z,96743.44
2019-04-11T10:02:20.964Z,96730.92
2019-04-11T10:07:28.141Z,96742.23
2019-04-11T10:12:42.403Z,96744.17
2019-04-11T10:18:07.317Z,96737.03
2019-04-11T10:23:13.763Z,96734.19
2019-04-11T10:28:27.321Z,96738.87
2019-04-11T10:33:43.025Z,96747.73
2019-04-11T10:38:50.857Z,96737.81
2019-04-11T10:43:55.558Z,96744.20
2019-04-11T10:49:01.873Z,96742.89
2019-04-11T10:54:08.418Z,96743.79
2019-04-11T10:59:13.996Z,96753.14
2019-04-11T11:04:21.872Z,96749.99
2019-04-11T11:09:35.399Z,96750.67
2019-04-11T11:14:45.017Z,96749.28
2019-04-11T11:20:18.236Z,96755.16
2019-04-11T12:13:54.012Z,96736.41
2019-04-11T12:19:15.838Z,96737.42
2019-04-11T12:24:30.181Z,96736.06
2019-04-11T12:29:36.479Z,96736.50
2019-04-11T12:34:49.404Z,96728.55
2019-04-11T12:40:06.676Z,96727.47
2019-04-11T12:45:22.790Z,96731.95
2019-04-11T12:50:45.285Z,96728.67
2019-04-11T12:56:00.643Z,96720.77
2019-04-11T13:01:07.123Z,96714.48
2019-04-11T13:06:35.411Z,96712.70
2019-04-11T13:11:37.395Z,96707.52
2019-04-11T13:16:44.086Z,96709.13
2019-04-11T13:21:50.363Z,96700.72
2019-04-11T13:27:12.821Z,96700.03
2019-04-11T13:32:34.051Z,96690.50
2019-04-11T13:37:56.818Z,96686.84
2019-04-11T13:43:19.686Z,96685.19
2019-04-11T13:48:44.342Z,96684.13
2019-04-11T13:54:06.661Z,96674.86
2019-04-11T13:59:29.423Z,96677.46
2019-04-11T14:04:44.606Z,96670.51
2019-04-11T14:09:50.783Z,96669.30
2019-04-11T14:14:57.067Z,96667.06
2019-04-11T14:20:29.137Z,96673.41
2019-04-11T14:25:27.752Z,96660.84
2019-04-11T14:30:46.677Z,96657.32
2019-04-11T14:36:12.264Z,96654.55
2019-04-11T14:41:21.305Z,96655.97
2019-04-11T14:46:42.838Z,96646.31
2019-04-11T14:51:58.070Z,96641.53
2019-04-11T14:57:03.284Z,96644.16
2019-04-11T15:02:09.971Z,96642.48
2019-04-11T15:07:16.352Z,96645.86
2019-04-11T15:12:26.567Z,96642.70
2019-04-11T15:17:32.896Z,96644.19
2019-04-11T15:22:45.239Z,96645.88
2019-04-11T15:27:54.479Z,96651.50
2019-04-11T15:33:16.940Z,96641.25
2019-04-11T15:38:38.577Z,96646.59
2019-04-11T15:44:00.118Z,96650.30
2019-04-11T15:49:21.161Z,96648.07
2019-04-11T15:54:40.122Z,96649.55
2019-04-11T16:00:02.809Z,96657.04
2019-04-11T16:05:22.844Z,96655.52
2019-04-11T16:10:29.367Z,96652.74
2019-04-11T16:15:39.444Z,96651.95
2019-04-11T16:20:47.803Z,96643.83
2019-04-11T16:25:52.305Z,96656.55
2019-04-11T16:30:58.582Z,96650.78
2019-04-11T16:36:20.119Z,96660.77
2019-04-11T16:41:43.505Z,96670.55
2019-04-11T16:47:08.322Z,96684.80
2019-04-11T16:52:13.175Z,96705.92
2019-04-11T16:57:18.109Z,96703.44
2019-04-11T17:02:24.245Z,96702.61
2019-04-11T17:07:47.665Z,96713.17
2019-04-11T17:12:53.802Z,96753.00
2019-04-11T17:17:59.713Z,96778.72
2019-04-11T17:23:05.584Z,96797.06
2019-04-11T17:28:10.329Z,96809.63
2019-04-11T17:33:14.967Z,96825.31
2019-04-11T17:38:19.715Z,96838.31
2019-04-11T17:43:24.451Z,96850.03
2019-04-11T17:48:29.195Z,96860.47
2019-04-11T17:53:33.947Z,96876.02
2019-04-11T17:58:38.788Z,96884.00
2019-04-11T18:03:43.531Z,96877.45
2019-04-11T18:08:51.108Z,96883.56
2019-04-11T18:13:54.453Z,96894.08
2019-04-11T18:18:59.085Z,96896.63
2019-04-11T18:24:03.936Z,96897.55
2019-04-11T18:29:08.585Z,96893.61
2019-04-11T18:34:13.230Z,96905.59
2019-04-11T18:39:17.965Z,96914.50
2019-04-11T18:44:22.705Z,96923.90
2019-04-11T18:49:27.457Z,96931.05
2019-04-11T18:54:32.103Z,96926.92
2019-04-11T18:59:37.246Z,96933.23
2019-04-11T19:04:42.780Z,96940.12
2019-04-11T19:09:47.654Z,96937.52
2019-04-11T19:14:52.393Z,96931.85
2019-04-11T19:19:57.139Z,96935.86
2019-04-11T19:25:02.888Z,96925.00
2019-04-11T19:30:07.873Z,96923.39
2019-04-11T19:35:12.703Z,96934.89
2019-04-11T19:40:17.890Z,96932.78
2019-04-11T19:45:23.952Z,96938.49
2019-04-11T19:50:30.211Z,96931.53
2019-04-11T19:55:36.594Z,96939.26
2019-04-11T20:00:42.524Z,96934.42
2019-04-11T20:05:47.411Z,96952.40
2019-04-11T20:10:52.251Z,96954.63
2019-04-11T20:15:57.354Z,96945.39
2019-04-11T20:21:02.161Z,96942.14
2019-04-11T20:26:06.893Z,96945.86
2019-04-11T20:31:11.635Z,96948.26
2019-04-11T20:36:16.383Z,96943.09
2019-04-11T20:41:23.220Z,96939.35
2019-04-11T20:46:29.103Z,96929.27
2019-04-11T20:51:33.788Z,96931.02
2019-04-11T20:56:40.325Z,96935.98
2019-04-11T21:01:44.809Z,96937.43
2019-04-11T21:06:49.427Z,96943.98
2019-04-11T21:11:54.193Z,96949.33
2019-04-11T21:16:59.144Z,96950.81
2019-04-11T21:22:05.536Z,96954.44
2019-04-11T21:27:10.367Z,96949.50
2019-04-11T21:32:15.229Z,96940.17
2019-04-11T21:37:19.952Z,96947.60
2019-04-11T21:42:24.697Z,96944.53
2019-04-11T21:47:29.446Z,96945.13
2019-04-11T21:52:34.308Z,96954.19
2019-04-11T21:57:39.133Z,96956.15
2019-04-11T22:02:43.811Z,96952.96
2019-04-11T22:07:48.726Z,96947.51
2019-04-11T22:12:54.393Z,96944.26
2019-04-11T22:17:59.131Z,96935.24
2019-04-11T22:23:03.876Z,96933.68
2019-04-11T22:28:08.518Z,96945.21
2019-04-11T22:33:15.819Z,96942.27
2019-04-11T22:38:20.470Z,96943.14
2019-04-11T22:43:25.201Z,96940.83
2019-04-11T22:48:30.046Z,96942.77
2019-04-11T22:53:34.687Z,96936.98
2019-04-11T22:58:39.444Z,96928.12
2019-04-11T23:03:48.782Z,96925.83
2019-04-11T23:08:53.520Z,96928.09
2019-04-11T23:13:58.267Z,96931.06
2019-04-11T23:19:02.912Z,96928.35
2019-04-11T23:24:11.977Z,96934.39
2019-04-11T23:29:16.129Z,96922.65
2019-04-11T23:34:22.153Z,96920.55
2019-04-11T23:39:27.616Z,96914.25
2019-04-11T23:44:32.360Z,96921.59
2019-04-11T23:49:37.208Z,96919.80
2019-04-11T23:54:43.596Z,96913.01
2019-04-11T23:59:48.328Z,96921.08
